Terminal Aerodrome Forecast
Issued by NWS

Home | Current Version | Previous Version | Text Only | Print | Product List | Glossary On
Versions: 1 2 3 4 5 6 7 8 9 10 11 12
908
FTUS45 KABQ 170536
TAFLVS
TAF
KLVS 170536Z 1706/1806 35006KT P6SM SKC
     FM171900 20011KT P6SM SCT250
     FM180300 25006KT P6SM FEW250=

USA.gov is the U.S. government's official web portal to all federal, state and local government web resources and services.